createdAt,value
2019-02-08T00:01:13.611Z,41.70
2019-02-08T00:03:42.904Z,39.07
2019-02-08T00:06:11.797Z,41.10
2019-02-08T00:08:40.791Z,35.50
2019-02-08T00:11:09.761Z,45.47
2019-02-08T00:13:38.694Z,39.37
2019-02-08T00:16:07.864Z,42.17
2019-02-08T00:18:36.871Z,37.60
2019-02-08T00:21:06.544Z,37.20
2019-02-08T00:23:35.455Z,50.07
2019-02-08T00:26:04.437Z,31.87
2019-02-08T00:28:33.730Z,38.73
2019-02-08T00:31:02.633Z,38.63
2019-02-08T00:33:31.625Z,39.80
2019-02-08T00:36:00.922Z,39.10
2019-02-08T00:38:29.842Z,35.70
2019-02-08T00:40:58.818Z,40.23
2019-02-08T00:43:27.800Z,34.93
2019-02-08T00:45:56.973Z,41.67
2019-02-08T00:48:25.890Z,39.60
2019-02-08T00:50:54.797Z,35.57
2019-02-08T00:53:24.470Z,44.60
2019-02-08T00:55:53.666Z,48.80
2019-02-08T00:58:22.581Z,36.63
2019-02-08T01:00:51.397Z,38.57
2019-02-08T01:03:20.313Z,38.17
2019-02-08T01:05:49.290Z,40.90
2019-02-08T01:08:18.274Z,34.70
2019-02-08T01:10:47.244Z,33.70
2019-02-08T01:13:16.247Z,38.43
2019-02-08T01:15:45.457Z,35.83
2019-02-08T01:18:14.368Z,42.20
2019-02-08T01:20:43.694Z,35.83
2019-02-08T01:23:12.672Z,40.37
2019-02-08T01:25:42.318Z,36.13
2019-02-08T01:28:11.586Z,35.77
2019-02-08T01:30:40.494Z,35.70
2019-02-08T01:33:09.482Z,42.63
2019-02-08T01:35:38.453Z,40.30
2019-02-08T01:38:07.385Z,43.30
2019-02-08T01:40:37.587Z,34.33
2019-02-08T01:43:06.975Z,36.10
2019-02-08T01:45:36.406Z,37.63
2019-02-08T01:48:06.718Z,30.60
2019-02-08T01:50:35.897Z,53.27
2019-02-08T01:53:05.097Z,31.97
2019-02-08T01:55:33.998Z,40.63
2019-02-08T01:58:03.084Z,39.57
2019-02-08T02:00:37.137Z,30.87
2019-02-08T02:03:07.401Z,40.33
2019-02-08T02:05:36.378Z,37.57
2019-02-08T02:08:06.138Z,33.30
2019-02-08T02:10:37.459Z,42.23
2019-02-08T02:13:07.412Z,47.93
2019-02-08T02:15:36.672Z,40.23
2019-02-08T02:18:06.127Z,36.13
2019-02-08T02:20:36.869Z,41.43
2019-02-08T02:23:06.881Z,45.20
2019-02-08T02:25:35.871Z,35.93
2019-02-08T02:28:05.373Z,42.17
2019-02-08T02:30:35.222Z,39.23
2019-02-08T02:33:05.549Z,42.80
2019-02-08T02:35:34.583Z,38.60
2019-02-08T02:38:04.286Z,41.83
2019-02-08T02:40:33.881Z,42.50
2019-02-08T02:43:02.889Z,41.57
2019-02-08T02:45:33.981Z,40.60
2019-02-08T02:48:03.306Z,34.80
2019-02-08T02:50:32.310Z,31.47
2019-02-08T02:53:01.300Z,33.07
2019-02-08T02:55:31.136Z,41.20
2019-02-08T02:58:00.397Z,36.20
2019-02-08T03:00:44.004Z,32.93
2019-02-08T03:03:14.454Z,26.30
2019-02-08T03:05:43.764Z,29.87
2019-02-08T03:08:14.048Z,40.63
2019-02-08T03:10:43.059Z,39.83
2019-02-08T03:13:12.152Z,29.40
2019-02-08T03:15:41.229Z,30.23
2019-02-08T03:18:10.588Z,29.77
2019-02-08T03:20:39.595Z,23.47
2019-02-08T03:23:08.597Z,40.40
2019-02-08T03:25:37.600Z,33.30
2019-02-08T03:28:06.601Z,29.93
2019-02-08T03:30:40.344Z,28.97
2019-02-08T03:33:09.634Z,38.83
2019-02-08T03:35:38.653Z,28.80
2019-02-08T03:38:07.670Z,32.20
2019-02-08T03:40:36.668Z,33.80
2019-02-08T03:43:05.735Z,29.33
2019-02-08T03:45:38.559Z,28.73
2019-02-08T03:48:07.744Z,25.87
2019-02-08T03:50:37.087Z,27.33
2019-02-08T03:53:06.884Z,29.13
2019-02-08T03:55:36.264Z,32.53
2019-02-08T03:58:05.940Z,26.13
2019-02-08T04:00:39.898Z,22.70
2019-02-08T04:03:08.887Z,28.63
2019-02-08T04:05:37.891Z,22.13
2019-02-08T04:08:07.001Z,25.67
2019-02-08T04:10:37.034Z,34.00
2019-02-08T04:13:06.019Z,32.90
2019-02-08T04:15:35.332Z,23.23
2019-02-08T04:18:04.705Z,25.67
2019-02-08T04:20:33.709Z,27.97
2019-02-08T04:23:03.017Z,25.43
2019-02-08T04:25:32.037Z,24.83
2019-02-08T04:28:00.952Z,29.43
2019-02-08T04:30:30.596Z,28.97
2019-02-08T04:33:00.452Z,33.63
2019-02-08T04:35:29.452Z,26.50
2019-02-08T04:38:09.930Z,32.23
2019-02-08T04:40:38.936Z,32.50
2019-02-08T04:43:07.933Z,28.17
2019-02-08T04:45:37.181Z,27.07
2019-02-08T04:48:06.181Z,32.73
2019-02-08T04:50:35.117Z,34.43
2019-02-08T04:53:04.208Z,25.83
2019-02-08T04:55:33.212Z,37.20
2019-02-08T04:58:02.132Z,29.57
2019-02-08T05:00:33.608Z,30.17
2019-02-08T05:03:02.681Z,30.50
2019-02-08T05:05:31.696Z,35.53
2019-02-08T05:08:00.714Z,27.03
2019-02-08T05:10:30.630Z,30.00
2019-02-08T05:12:59.631Z,32.90
2019-02-08T05:15:28.769Z,28.40
2019-02-08T05:17:58.168Z,29.63
2019-02-08T05:20:28.304Z,27.93
2019-02-08T05:22:57.649Z,38.00
2019-02-08T05:25:26.690Z,31.43
2019-02-08T05:27:55.996Z,34.90
2019-02-08T05:30:27.265Z,27.43
2019-02-08T05:32:56.291Z,36.17
2019-02-08T05:35:25.604Z,23.03
2019-02-08T05:37:54.619Z,29.03
2019-02-08T05:40:24.352Z,32.27
2019-02-08T05:42:53.360Z,45.87
2019-02-08T05:45:22.819Z,41.30
2019-02-08T05:48:10.956Z,26.87
2019-02-08T05:50:39.973Z,28.23
2019-02-08T05:53:08.976Z,24.77
2019-02-08T05:55:37.969Z,24.17
2019-02-08T05:58:07.614Z,30.03
2019-02-08T06:00:49.301Z,37.10
2019-02-08T06:03:18.314Z,30.27
2019-02-08T06:05:47.720Z,25.63
2019-02-08T06:08:17.205Z,24.87
2019-02-08T06:10:46.124Z,19.60
2019-02-08T06:13:15.415Z,23.33
2019-02-08T06:15:44.349Z,18.47
2019-02-08T06:18:13.680Z,24.20
2019-02-08T06:20:42.734Z,28.40
2019-02-08T06:23:11.736Z,31.23
2019-02-08T06:25:41.072Z,23.50
2019-02-08T06:28:10.106Z,24.43
2019-02-08T06:30:39.397Z,25.33
2019-02-08T06:33:09.076Z,28.20
2019-02-08T06:35:38.367Z,29.90
2019-02-08T06:38:07.848Z,34.80
2019-02-08T06:40:40.040Z,29.40
2019-02-08T06:43:09.164Z,24.93
2019-02-08T06:45:38.183Z,25.87
2019-02-08T06:48:08.241Z,27.27
2019-02-08T06:50:37.230Z,20.70
2019-02-08T06:53:06.427Z,27.60
2019-02-08T06:55:35.443Z,27.80
2019-02-08T06:58:37.404Z,22.77
2019-02-08T07:01:24.476Z,21.60
2019-02-08T07:04:02.852Z,25.93
2019-02-08T07:06:52.689Z,26.67
2019-02-08T07:09:59.479Z,24.10
2019-02-08T07:12:47.954Z,26.07
2019-02-08T07:15:34.783Z,22.50
2019-02-08T07:18:21.908Z,19.03
2019-02-08T07:21:16.022Z,21.23
2019-02-08T07:24:07.126Z,22.57
2019-02-08T07:26:55.512Z,19.40
2019-02-08T07:29:39.975Z,24.13
2019-02-08T07:32:46.739Z,19.70
2019-02-08T07:35:26.804Z,14.83
2019-02-08T07:38:02.332Z,20.40
2019-02-08T07:40:52.737Z,16.83
2019-02-08T07:43:47.324Z,17.07
2019-02-08T07:46:34.820Z,15.00
2019-02-08T07:49:14.883Z,12.47
2019-02-08T07:52:02.937Z,12.23
2019-02-08T07:54:51.660Z,14.37
2019-02-08T07:57:39.748Z,10.73
2019-02-08T08:00:33.936Z,9.50
2019-02-08T08:03:35.871Z,17.73
2019-02-08T08:06:42.560Z,16.40
2019-02-08T08:09:29.853Z,13.30
2019-02-08T08:12:13.820Z,16.27
2019-02-08T08:14:52.936Z,11.53
2019-02-08T08:17:44.240Z,15.50
2019-02-08T08:20:28.908Z,12.70
2019-02-08T08:23:11.628Z,7.60
2019-02-08T08:26:14.238Z,6.10
2019-02-08T08:29:03.576Z,5.97
2019-02-08T08:31:45.952Z,5.30
2019-02-08T08:34:52.573Z,3.87
2019-02-08T08:37:57.428Z,2.17
2019-02-08T08:41:13.894Z,6.03
2019-02-08T08:44:33.293Z,2.77
2019-02-08T08:47:59.568Z,4.00
2019-02-08T08:51:13.255Z,8.23
2019-02-08T08:54:16.957Z,6.50
2019-02-08T08:57:07.525Z,3.97
2019-02-08T09:00:14.812Z,6.47
2019-02-08T09:03:16.566Z,4.20
2019-02-08T09:06:37.461Z,7.53
2019-02-08T09:09:47.935Z,7.10
2019-02-08T09:13:14.638Z,9.60
2019-02-08T09:16:19.052Z,9.50
2019-02-08T09:19:37.312Z,6.30
2019-02-08T09:22:34.368Z,6.30
2019-02-08T09:25:49.963Z,2.83
2019-02-08T09:28:42.776Z,4.30
2019-02-08T09:31:46.133Z,10.97
2019-02-08T09:35:11.647Z,4.03
2019-02-08T09:38:20.205Z,2.40
2019-02-08T09:41:37.756Z,3.57
2019-02-08T09:44:49.106Z,3.73
2019-02-08T09:47:55.214Z,3.50
2019-02-08T09:50:53.316Z,8.03
2019-02-08T09:54:05.106Z,4.97
2019-02-08T09:57:01.354Z,3.53
2019-02-08T10:00:07.913Z,4.33
2019-02-08T10:03:10.577Z,3.40
2019-02-08T10:06:27.155Z,2.57
2019-02-08T10:09:48.633Z,3.47
2019-02-08T10:12:42.995Z,4.57
2019-02-08T10:16:04.479Z,4.33
2019-02-08T10:19:09.393Z,2.47
2019-02-08T10:22:09.104Z,1.30
2019-02-08T10:25:25.249Z,1.73
2019-02-08T10:28:32.556Z,3.10
2019-02-08T10:31:46.493Z,4.90
2019-02-08T10:34:51.601Z,1.63
2019-02-08T10:38:07.835Z,3.30
2019-02-08T10:41:10.880Z,5.80
2019-02-08T10:44:51.281Z,3.23
2019-02-08T10:48:15.535Z,2.50
2019-02-08T10:51:32.648Z,7.20
2019-02-08T10:54:47.848Z,10.47
2019-02-08T10:57:43.517Z,4.30
2019-02-08T11:01:05.593Z,4.40
2019-02-08T11:04:19.764Z,3.50
2019-02-08T11:07:40.832Z,6.20
2019-02-08T11:11:00.486Z,2.00
2019-02-08T11:14:14.917Z,6.03
2019-02-08T11:17:19.968Z,1.10
2019-02-08T11:19:55.747Z,3.47
2019-02-08T11:22:24.972Z,2.10
2019-02-08T11:24:53.990Z,5.33
2019-02-08T11:27:23.405Z,1.20
2019-02-08T11:29:52.397Z,3.33
2019-02-08T11:32:43.265Z,4.67
2019-02-08T11:35:11.261Z,1.10
2019-02-08T11:37:40.428Z,1.57
2019-02-08T11:40:14.215Z,2.70
2019-02-08T11:42:43.569Z,1.13
2019-02-08T11:45:13.353Z,1.50
2019-02-08T11:47:42.668Z,5.63
2019-02-08T11:50:15.310Z,4.67
2019-02-08T11:52:44.660Z,5.13
2019-02-08T11:55:33.085Z,6.40
2019-02-08T11:58:02.288Z,2.13
2019-02-08T12:00:38.093Z,5.80
2019-02-08T12:03:07.084Z,4.13
2019-02-08T12:05:36.112Z,2.53
2019-02-08T12:08:07.132Z,3.67
2019-02-08T12:10:36.128Z,2.10
2019-02-08T12:13:05.156Z,2.40
2019-02-08T12:15:34.173Z,1.63
2019-02-08T12:18:03.453Z,1.33
2019-02-08T12:20:32.447Z,7.10
2019-02-08T12:23:01.521Z,2.20
2019-02-08T12:25:30.541Z,2.10
2019-02-08T12:27:59.537Z,2.10
2019-02-08T12:30:32.268Z,1.30
2019-02-08T12:33:01.264Z,9.67
2019-02-08T12:35:30.268Z,5.30
2019-02-08T12:37:59.686Z,2.90
2019-02-08T12:40:28.712Z,3.53
2019-02-08T12:42:57.698Z,1.80
2019-02-08T12:45:26.818Z,2.87
2019-02-08T12:47:56.921Z,2.03
2019-02-08T12:50:26.122Z,1.63
2019-02-08T12:52:55.536Z,3.90
2019-02-08T12:55:24.543Z,3.90
2019-02-08T12:57:53.495Z,3.53
2019-02-08T13:00:22.590Z,1.40
2019-02-08T13:02:51.932Z,3.40
2019-02-08T13:05:21.427Z,2.23
2019-02-08T13:07:50.640Z,3.97
2019-02-08T13:10:21.764Z,2.97
2019-02-08T13:12:50.799Z,3.00
2019-02-08T13:15:20.016Z,1.60
2019-02-08T13:17:49.033Z,2.60
2019-02-08T13:20:18.395Z,2.40
2019-02-08T13:22:49.070Z,2.50
2019-02-08T13:25:18.396Z,11.07
2019-02-08T13:27:48.333Z,1.90
2019-02-08T13:30:19.952Z,1.50
2019-02-08T13:32:48.892Z,6.03
2019-02-08T13:35:18.178Z,1.50
2019-02-08T13:37:47.293Z,1.00
2019-02-08T13:40:16.973Z,1.40
2019-02-08T13:42:46.276Z,1.87
2019-02-08T13:45:15.684Z,2.90
2019-02-08T13:47:45.388Z,3.37
2019-02-08T13:50:17.312Z,1.50
2019-02-08T13:52:46.956Z,1.10
2019-02-08T13:55:17.084Z,1.30
2019-02-08T13:57:46.099Z,1.33
2019-02-08T14:00:23.960Z,0.97
2019-02-08T14:02:52.961Z,3.57
2019-02-08T14:05:21.993Z,2.93
2019-02-08T14:07:50.992Z,2.10
2019-02-08T14:10:20.557Z,1.70
2019-02-08T14:12:49.546Z,2.00
2019-02-08T14:15:19.170Z,1.07
2019-02-08T14:17:48.528Z,1.03
2019-02-08T14:20:19.757Z,3.00
2019-02-08T14:22:49.141Z,5.70
2019-02-08T14:25:18.804Z,3.70
2019-02-08T14:27:47.822Z,2.77
2019-02-08T14:30:37.664Z,2.20
2019-02-08T14:33:06.838Z,4.20
2019-02-08T14:35:35.970Z,0.90
2019-02-08T14:38:07.490Z,11.13
2019-02-08T14:40:36.953Z,12.30
2019-02-08T14:43:05.964Z,22.63
2019-02-08T14:45:35.239Z,39.20
2019-02-08T14:48:04.773Z,21.10
2019-02-08T14:50:33.760Z,23.83
2019-02-08T14:53:02.756Z,17.20
2019-02-08T14:55:31.775Z,38.50
2019-02-08T14:58:01.279Z,46.70
2019-02-08T15:00:30.300Z,53.17
2019-02-08T15:02:59.345Z,43.60
2019-02-08T15:05:28.280Z,57.50
2019-02-08T15:07:57.685Z,53.23
2019-02-08T15:10:29.460Z,77.27
2019-02-08T15:13:00.222Z,52.27
2019-02-08T15:15:29.625Z,41.47
2019-02-08T15:17:58.660Z,35.70
2019-02-08T15:20:30.041Z,45.63
2019-02-08T15:22:59.456Z,32.67
2019-02-08T15:25:28.825Z,20.67
2019-02-08T15:27:57.942Z,17.33
2019-02-08T15:30:29.417Z,9.23
2019-02-08T15:32:58.444Z,8.20
2019-02-08T15:35:27.977Z,8.53
2019-02-08T15:37:57.104Z,6.13
2019-02-08T15:40:38.054Z,18.70
2019-02-08T15:43:07.693Z,6.63
2019-02-08T15:45:36.728Z,6.87
2019-02-08T15:48:05.846Z,4.03
2019-02-08T15:50:35.257Z,3.60
2019-02-08T15:53:05.414Z,9.83
2019-02-08T15:55:36.203Z,8.47
2019-02-08T15:58:06.213Z,10.60
2019-02-08T16:00:36.029Z,7.63
2019-02-08T16:03:07.428Z,8.70
2019-02-08T16:05:36.752Z,8.53
2019-02-08T16:08:05.796Z,31.20
2019-02-08T16:10:35.160Z,20.00
2019-02-08T16:13:04.257Z,6.37
2019-02-08T16:15:33.281Z,14.10
2019-02-08T16:18:21.397Z,10.77
2019-02-08T16:20:50.427Z,7.63
2019-02-08T16:23:19.339Z,7.20
2019-02-08T16:25:48.409Z,6.83
2019-02-08T16:28:17.372Z,10.00
2019-02-08T16:30:46.475Z,13.53
2019-02-08T16:33:15.793Z,4.50
2019-02-08T16:35:44.868Z,3.33
2019-02-08T16:38:13.893Z,9.60
2019-02-08T16:40:42.900Z,20.50
2019-02-08T16:43:11.896Z,28.00
2019-02-08T16:45:41.034Z,15.43
2019-02-08T16:48:10.221Z,10.50
2019-02-08T16:50:39.412Z,15.10
2019-02-08T16:53:09.251Z,16.90
2019-02-08T16:55:38.633Z,16.47
2019-02-08T16:58:07.957Z,12.13
2019-02-08T17:00:37.113Z,12.17
2019-02-08T17:03:08.257Z,8.80
2019-02-08T17:05:37.288Z,12.87
2019-02-08T17:08:06.316Z,11.60
2019-02-08T17:10:35.574Z,15.50
2019-02-08T17:13:05.049Z,18.35
2019-02-08T17:15:34.452Z,18.57
2019-02-08T17:18:03.550Z,18.95
2019-02-08T17:20:37.464Z,17.05
2019-02-08T17:23:06.583Z,28.00
2019-02-08T17:25:35.880Z,21.93
2019-02-08T17:28:05.890Z,18.62
2019-02-08T17:30:35.085Z,21.73
2019-02-08T17:33:04.525Z,14.80
2019-02-08T17:35:33.516Z,18.50
2019-02-08T17:38:02.549Z,22.52
2019-02-08T17:40:32.592Z,13.48
2019-02-08T17:43:01.612Z,15.72
2019-02-08T17:45:30.552Z,17.30
2019-02-08T17:48:01.657Z,15.18
2019-02-08T17:50:30.901Z,12.18
2019-02-08T17:53:00.045Z,16.32
2019-02-08T17:55:29.621Z,16.70
2019-02-08T17:58:03.538Z,13.40
2019-02-08T18:00:43.935Z,22.13
2019-02-08T18:03:12.949Z,25.10
2019-02-08T18:05:41.981Z,31.47
2019-02-08T18:08:11.406Z,25.88
2019-02-08T18:10:40.392Z,8.23
2019-02-08T18:13:09.400Z,14.90
2019-02-08T18:15:38.400Z,16.40
2019-02-08T18:18:09.472Z,28.05
2019-02-08T18:20:41.011Z,42.88
2019-02-08T18:23:10.008Z,33.38
2019-02-08T18:25:39.024Z,28.65
2019-02-08T18:28:11.032Z,39.83
2019-02-08T18:30:39.860Z,36.50
2019-02-08T18:33:09.223Z,42.03
2019-02-08T18:35:38.256Z,39.40
2019-02-08T18:38:07.560Z,29.70
2019-02-08T18:40:36.936Z,38.85
2019-02-08T18:43:05.973Z,32.23
2019-02-08T18:45:35.276Z,21.83
2019-02-08T18:48:05.051Z,15.20
2019-02-08T18:50:36.484Z,41.98
2019-02-08T18:53:05.931Z,31.57
2019-02-08T18:55:35.233Z,41.30
2019-02-08T18:58:04.981Z,34.75
2019-02-08T19:00:39.983Z,40.85
2019-02-08T19:03:07.620Z,35.92
2019-02-08T19:05:36.676Z,35.13
2019-02-08T19:08:06.712Z,36.17
2019-02-08T19:10:35.717Z,34.38
2019-02-08T19:13:05.060Z,26.20
2019-02-08T19:15:34.293Z,26.50
2019-02-08T19:18:03.300Z,22.37
2019-02-08T19:20:32.336Z,15.30
2019-02-08T19:23:01.613Z,20.55
2019-02-08T19:25:35.688Z,13.98
2019-02-08T19:28:05.196Z,15.28
2019-02-08T19:30:35.840Z,14.33
2019-02-08T19:33:05.584Z,9.18
2019-02-08T19:35:34.608Z,10.98
2019-02-08T19:38:03.649Z,8.28
2019-02-08T19:40:37.696Z,5.60
2019-02-08T19:43:06.941Z,6.17
2019-02-08T19:45:36.009Z,5.03
2019-02-08T19:48:06.193Z,4.50
2019-02-08T19:50:37.192Z,5.83
2019-02-08T19:53:07.092Z,6.97
2019-02-08T19:55:36.209Z,5.60
2019-02-08T19:58:06.545Z,6.73
2019-02-08T20:00:35.693Z,6.17
2019-02-08T20:03:05.593Z,6.50
2019-02-08T20:05:35.201Z,5.27
2019-02-08T20:08:04.525Z,5.40
2019-02-08T20:10:35.616Z,3.03
2019-02-08T20:13:05.005Z,2.70
2019-02-08T20:15:34.411Z,3.43
2019-02-08T20:18:03.416Z,3.30
2019-02-08T20:20:32.417Z,3.90
2019-02-08T20:23:01.532Z,3.87
2019-02-08T20:25:32.193Z,4.53
2019-02-08T20:28:01.854Z,4.37
2019-02-08T20:30:31.328Z,4.20
2019-02-08T20:33:00.868Z,3.13
2019-02-08T20:35:30.380Z,3.77
2019-02-08T20:37:59.811Z,2.40
2019-02-08T20:40:37.123Z,2.30
2019-02-08T20:43:06.106Z,2.87
2019-02-08T20:45:35.501Z,1.90
2019-02-08T20:48:08.068Z,2.37
2019-02-08T20:50:37.088Z,2.13
2019-02-08T20:53:06.093Z,14.23
2019-02-08T20:55:35.936Z,10.10
2019-02-08T20:58:07.197Z,9.30
2019-02-08T21:00:38.297Z,10.57
2019-02-08T21:03:12.716Z,15.27
2019-02-08T21:05:42.933Z,3.00
2019-02-08T21:08:12.622Z,2.20
2019-02-08T21:10:41.745Z,1.73
2019-02-08T21:13:11.510Z,2.00
2019-02-08T21:15:41.572Z,3.50
2019-02-08T21:18:11.545Z,4.20
2019-02-08T21:20:41.772Z,4.70
2019-02-08T21:23:11.776Z,24.90
2019-02-08T21:25:40.932Z,9.97
2019-02-08T21:28:10.507Z,9.57
2019-02-08T21:30:39.576Z,12.23
2019-02-08T21:33:10.632Z,4.23
2019-02-08T21:35:39.645Z,8.87
2019-02-08T21:38:09.089Z,10.77
2019-02-08T21:40:38.622Z,4.50
2019-02-08T21:43:08.001Z,10.73
2019-02-08T21:45:37.846Z,10.93
2019-02-08T21:48:08.393Z,15.47
2019-02-08T21:50:37.380Z,8.93
2019-02-08T21:53:06.720Z,11.20
2019-02-08T21:55:36.229Z,5.77
2019-02-08T21:58:06.280Z,4.30
2019-02-08T22:00:37.393Z,6.00
2019-02-08T22:03:07.627Z,5.87
2019-02-08T22:05:42.408Z,4.10
2019-02-08T22:08:11.416Z,5.87
2019-02-08T22:10:40.792Z,4.20
2019-02-08T22:13:09.799Z,4.90
2019-02-08T22:15:38.904Z,5.80
2019-02-08T22:18:08.501Z,4.53
2019-02-08T22:20:37.828Z,7.43
2019-02-08T22:23:14.924Z,4.30
2019-02-08T22:25:43.900Z,5.10
2019-02-08T22:28:12.920Z,3.03
2019-02-08T22:30:42.207Z,2.20
2019-02-08T22:33:11.604Z,2.90
2019-02-08T22:35:40.775Z,2.73
2019-02-08T22:38:09.897Z,2.47
2019-02-08T22:40:39.181Z,3.10
2019-02-08T22:43:08.551Z,3.53
2019-02-08T22:45:39.243Z,3.53
2019-02-08T22:48:09.220Z,2.87
2019-02-08T22:50:38.294Z,3.90
2019-02-08T22:53:08.808Z,9.63
2019-02-08T22:55:38.009Z,7.70
2019-02-08T22:58:08.100Z,5.40
2019-02-08T23:01:27.367Z,9.23
2019-02-08T23:03:57.830Z,5.47
2019-02-08T23:06:29.898Z,10.43
2019-02-08T23:08:59.338Z,7.40
2019-02-08T23:11:28.729Z,9.00
2019-02-08T23:13:58.131Z,7.83
2019-02-08T23:16:27.188Z,15.00
2019-02-08T23:18:56.597Z,6.97
2019-02-08T23:21:25.597Z,8.23
2019-02-08T23:23:54.553Z,10.60
2019-02-08T23:26:23.536Z,7.07
2019-02-08T23:28:52.475Z,7.40
2019-02-08T23:31:21.796Z,7.27
2019-02-08T23:33:50.720Z,9.03
2019-02-08T23:36:19.740Z,11.33
2019-02-08T23:38:48.745Z,4.67
2019-02-08T23:41:17.744Z,7.50
2019-02-08T23:43:46.744Z,10.73
2019-02-08T23:46:15.661Z,7.07
2019-02-08T23:48:44.657Z,11.23
2019-02-08T23:51:13.655Z,9.13
2019-02-08T23:53:43.025Z,7.10
2019-02-08T23:56:12.040Z,9.70
2019-02-08T23:58:41.068Z,5.90
